createdAt,value
2022-10-31T00:00:48.623Z,24.17
2022-10-31T00:03:18.115Z,23.13
2022-10-31T00:05:47.552Z,22.98
2022-10-31T00:08:15.738Z,22.13
2022-10-31T00:10:45.060Z,21.40
2022-10-31T00:13:14.863Z,23.40
2022-10-31T00:15:42.852Z,23.20
2022-10-31T00:18:12.318Z,23.67
2022-10-31T00:20:41.586Z,21.15
2022-10-31T00:23:09.744Z,23.13
2022-10-31T00:25:39.691Z,22.85
2022-10-31T00:28:09.206Z,25.50
2022-10-31T00:30:37.098Z,22.90
2022-10-31T00:33:09.215Z,22.13
2022-10-31T00:35:37.102Z,20.55
2022-10-31T00:38:06.463Z,18.92
2022-10-31T00:40:34.324Z,19.88
2022-10-31T00:43:02.770Z,20.23
2022-10-31T00:45:31.074Z,22.30
2022-10-31T00:47:59.294Z,20.30
2022-10-31T00:50:27.481Z,21.33
2022-10-31T00:52:55.634Z,20.27
2022-10-31T00:55:24.893Z,22.70
2022-10-31T00:57:52.857Z,24.77
2022-10-31T01:00:20.950Z,22.25
2022-10-31T01:02:48.998Z,23.25
2022-10-31T01:05:17.090Z,22.38
2022-10-31T01:07:45.315Z,22.13
2022-10-31T01:10:13.449Z,23.73
2022-10-31T01:12:44.829Z,23.33
2022-10-31T01:15:14.759Z,23.25
2022-10-31T01:17:43.777Z,21.35
2022-10-31T01:20:14.314Z,24.17
2022-10-31T01:22:42.235Z,24.27
2022-10-31T01:25:11.225Z,24.05
2022-10-31T01:27:39.222Z,25.05
2022-10-31T01:30:09.713Z,24.85
2022-10-31T01:32:37.672Z,28.02
2022-10-31T01:35:06.037Z,28.45
2022-10-31T01:37:34.040Z,29.50
2022-10-31T01:40:01.950Z,26.65
2022-10-31T01:42:29.825Z,35.20
2022-10-31T01:45:01.457Z,35.17
2022-10-31T01:47:40.225Z,30.37
2022-10-31T01:50:15.783Z,29.77
2022-10-31T01:52:46.597Z,30.27
2022-10-31T01:55:17.874Z,28.02
2022-10-31T01:57:48.748Z,28.85
2022-10-31T02:00:19.986Z,27.55
2022-10-31T02:02:51.351Z,28.55
2022-10-31T02:05:22.305Z,28.75
2022-10-31T02:07:55.120Z,30.95
2022-10-31T02:10:25.081Z,33.53
2022-10-31T02:12:54.395Z,30.98
2022-10-31T02:15:22.329Z,30.90
2022-10-31T02:17:51.811Z,32.17
2022-10-31T02:20:22.540Z,28.83
2022-10-31T02:23:25.307Z,29.17
2022-10-31T02:26:26.214Z,31.00
2022-10-31T02:29:25.278Z,32.15
2022-10-31T02:32:01.321Z,33.83
2022-10-31T02:34:35.070Z,34.25
2022-10-31T02:37:13.817Z,33.67
2022-10-31T02:39:50.558Z,36.45
2022-10-31T02:42:26.045Z,35.15
2022-10-31T02:45:02.467Z,36.92
2022-10-31T02:47:38.711Z,37.15
2022-10-31T02:50:11.343Z,34.78
2022-10-31T02:52:39.218Z,34.05
2022-10-31T02:55:34.274Z,33.35
2022-10-31T02:58:06.547Z,33.55
2022-10-31T03:00:44.815Z,31.50
2022-10-31T03:03:21.563Z,31.02
2022-10-31T03:05:57.029Z,34.22
2022-10-31T03:08:29.470Z,32.90
2022-10-31T03:13:35.253Z,34.50
2022-10-31T03:16:10.624Z,34.35
2022-10-31T03:18:45.881Z,33.55
2022-10-31T03:21:19.697Z,38.28
2022-10-31T03:23:49.330Z,37.70
2022-10-31T03:26:18.882Z,42.03
2022-10-31T03:28:50.871Z,40.28
2022-10-31T03:31:21.305Z,49.05
2022-10-31T03:33:53.009Z,61.28
2022-10-31T03:36:22.209Z,68.05
2022-10-31T03:38:50.604Z,60.20
2022-10-31T03:41:22.188Z,57.70
2022-10-31T03:43:57.005Z,59.03
2022-10-31T03:46:25.986Z,54.80
2022-10-31T03:48:55.542Z,51.40
2022-10-31T03:51:26.805Z,54.92
2022-10-31T03:53:58.599Z,51.38
2022-10-31T03:56:33.562Z,49.58
2022-10-31T03:59:06.341Z,49.05
2022-10-31T04:01:39.887Z,47.45
2022-10-31T04:04:10.082Z,50.85
2022-10-31T04:06:40.856Z,52.28
2022-10-31T04:09:11.316Z,58.28
2022-10-31T04:11:45.948Z,57.35
2022-10-31T04:14:14.149Z,56.63
2022-10-31T04:16:44.978Z,56.83
2022-10-31T04:19:14.876Z,57.10
2022-10-31T04:21:44.287Z,59.13
2022-10-31T04:24:12.825Z,55.10
2022-10-31T04:26:40.712Z,56.15
2022-10-31T04:29:08.613Z,56.42
2022-10-31T04:31:36.510Z,56.75
2022-10-31T04:34:04.413Z,57.00
2022-10-31T04:36:33.645Z,58.17
2022-10-31T04:39:01.528Z,59.35
2022-10-31T04:41:29.404Z,58.53
2022-10-31T04:43:57.269Z,56.17
2022-10-31T04:46:25.250Z,59.80
2022-10-31T04:48:53.135Z,56.97
2022-10-31T04:51:21.013Z,57.35
2022-10-31T04:53:50.253Z,63.10
2022-10-31T04:56:18.182Z,61.97
2022-10-31T04:58:46.252Z,64.03
2022-10-31T05:01:15.303Z,65.28
2022-10-31T05:03:43.306Z,60.63
2022-10-31T05:06:11.206Z,64.30
2022-10-31T05:08:39.101Z,63.35
2022-10-31T05:11:08.329Z,66.10
2022-10-31T05:13:36.458Z,64.55
2022-10-31T05:16:04.365Z,64.05
2022-10-31T05:18:32.250Z,62.08
2022-10-31T05:21:00.132Z,62.17
2022-10-31T05:23:28.044Z,65.45
2022-10-31T05:25:55.988Z,66.20
2022-10-31T05:28:25.284Z,65.38
2022-10-31T05:30:53.224Z,66.93
2022-10-31T05:33:21.089Z,66.07
2022-10-31T05:35:49.056Z,61.38
2022-10-31T05:38:16.924Z,67.93
2022-10-31T05:40:44.851Z,62.00
2022-10-31T05:43:12.980Z,65.82
2022-10-31T05:45:42.253Z,60.50
2022-10-31T05:48:10.622Z,58.50
2022-10-31T05:50:38.494Z,61.95
2022-10-31T05:53:07.374Z,66.55
2022-10-31T05:55:35.294Z,64.13
2022-10-31T05:58:03.534Z,66.00
2022-10-31T06:00:32.080Z,61.63
2022-10-31T06:03:02.326Z,61.35
2022-10-31T06:05:30.820Z,57.03
2022-10-31T06:07:59.677Z,60.65
2022-10-31T06:10:28.249Z,59.35
2022-10-31T06:12:56.184Z,60.85
2022-10-31T06:15:24.949Z,66.32
2022-10-31T06:18:05.634Z,68.80
2022-10-31T06:20:34.115Z,69.22
2022-10-31T06:23:02.810Z,69.60
2022-10-31T06:25:31.158Z,74.72
2022-10-31T06:27:59.280Z,64.68
2022-10-31T06:30:27.561Z,67.65
2022-10-31T06:32:56.576Z,66.05
2022-10-31T06:35:25.849Z,71.18
2022-10-31T06:37:54.354Z,60.47
2022-10-31T06:40:22.707Z,67.68
2022-10-31T06:42:58.660Z,70.20
2022-10-31T06:45:26.608Z,68.85
2022-10-31T06:48:15.971Z,73.35
2022-10-31T06:50:43.972Z,75.13
2022-10-31T06:53:12.398Z,71.30
2022-10-31T06:55:40.501Z,67.38
2022-10-31T06:58:09.182Z,71.47
2022-10-31T07:00:38.065Z,78.05
2022-10-31T07:03:07.851Z,77.03
2022-10-31T07:05:35.749Z,75.13
2022-10-31T07:08:06.864Z,81.38
2022-10-31T07:10:40.106Z,79.75
2022-10-31T07:13:12.083Z,84.13
2022-10-31T07:15:41.091Z,82.38
2022-10-31T07:18:11.061Z,88.28
2022-10-31T07:20:39.546Z,93.28
2022-10-31T07:23:09.631Z,91.40
2022-10-31T07:25:37.488Z,96.63
2022-10-31T07:28:05.549Z,104.97
2022-10-31T07:30:33.720Z,105.88
2022-10-31T07:33:01.633Z,120.38
2022-10-31T07:35:30.992Z,127.65
2022-10-31T07:37:59.854Z,131.40
2022-10-31T07:40:31.803Z,138.13
2022-10-31T07:43:00.260Z,141.27
2022-10-31T07:45:28.131Z,150.13
2022-10-31T07:47:56.085Z,157.40
2022-10-31T07:50:25.468Z,165.60
2022-10-31T07:53:00.868Z,159.63
2022-10-31T07:55:31.251Z,160.77
2022-10-31T07:58:01.073Z,170.60
2022-10-31T08:00:29.236Z,164.20
2022-10-31T08:03:01.572Z,168.73
2022-10-31T08:07:59.794Z,163.18
2022-10-31T08:10:30.047Z,163.88
2022-10-31T08:12:59.661Z,164.23
2022-10-31T08:15:28.226Z,167.68
2022-10-31T08:17:56.346Z,175.45
2022-10-31T08:20:24.535Z,180.32
2022-10-31T08:22:57.446Z,171.75
2022-10-31T08:25:27.024Z,183.40
2022-10-31T08:27:58.212Z,180.60
2022-10-31T08:30:29.189Z,183.40
2022-10-31T08:33:01.693Z,178.43
2022-10-31T08:37:58.456Z,188.15
2022-10-31T08:40:27.861Z,195.57
2022-10-31T08:43:01.563Z,192.75
2022-10-31T08:45:29.994Z,204.20
2022-10-31T08:48:01.535Z,200.25
2022-10-31T08:50:31.383Z,198.27
2022-10-31T08:53:05.886Z,201.25
2022-10-31T08:55:35.721Z,209.57
2022-10-31T08:58:06.358Z,208.00
2022-10-31T09:00:34.578Z,209.70
2022-10-31T09:03:04.052Z,199.27
2022-10-31T09:05:33.369Z,198.13
2022-10-31T09:08:03.053Z,192.70
2022-10-31T09:10:32.826Z,187.57
2022-10-31T09:13:02.191Z,187.55
2022-10-31T09:15:32.294Z,182.52
2022-10-31T09:18:00.661Z,176.02
2022-10-31T09:20:29.278Z,173.02
2022-10-31T09:22:59.155Z,171.13
2022-10-31T09:25:27.782Z,174.02
2022-10-31T09:27:59.828Z,182.88
2022-10-31T09:33:06.849Z,163.88
2022-10-31T09:35:34.995Z,158.25
2022-10-31T09:38:05.055Z,157.00
2022-10-31T09:40:36.570Z,148.45
2022-10-31T09:43:14.952Z,150.20
2022-10-31T09:45:50.529Z,143.00
2022-10-31T09:48:56.211Z,128.05
2022-10-31T09:51:30.183Z,119.72
2022-10-31T09:54:04.132Z,112.80
2022-10-31T09:56:34.147Z,99.50
2022-10-31T09:59:05.294Z,90.00
2022-10-31T10:01:41.932Z,83.75
2022-10-31T10:04:26.713Z,81.28
2022-10-31T10:06:54.890Z,78.88
2022-10-31T10:09:27.071Z,74.15
2022-10-31T10:12:07.233Z,75.43
2022-10-31T10:14:50.275Z,78.72
2022-10-31T10:17:28.423Z,74.13
2022-10-31T10:20:13.849Z,80.22
2022-10-31T10:22:49.700Z,78.57
2022-10-31T10:25:24.252Z,82.65
2022-10-31T10:28:04.270Z,81.82
2022-10-31T10:30:37.876Z,73.00
2022-10-31T10:33:11.440Z,72.40
2022-10-31T10:35:45.912Z,69.55
2022-10-31T10:38:22.616Z,67.63
2022-10-31T10:40:50.929Z,68.53
2022-10-31T10:43:23.317Z,60.75
2022-10-31T10:48:45.340Z,54.53
2022-10-31T10:51:39.132Z,45.65
2022-10-31T10:54:41.115Z,37.35
2022-10-31T10:57:22.231Z,41.20
2022-10-31T10:59:50.418Z,38.90
2022-10-31T11:02:20.475Z,32.28
2022-10-31T11:04:52.743Z,28.55
2022-10-31T11:09:49.813Z,29.25
2022-10-31T11:12:23.957Z,27.23
2022-10-31T11:14:55.418Z,25.80
2022-10-31T11:17:31.399Z,29.10
2022-10-31T11:20:05.487Z,30.63
2022-10-31T11:22:34.761Z,32.72
2022-10-31T11:25:02.650Z,36.15
2022-10-31T11:27:30.606Z,37.63
2022-10-31T11:30:07.002Z,39.58
2022-10-31T11:32:35.009Z,41.38
2022-10-31T11:35:10.792Z,43.70
2022-10-31T11:37:45.693Z,38.38
2022-10-31T11:40:19.954Z,42.70
2022-10-31T11:42:49.201Z,38.30
2022-10-31T11:45:19.181Z,45.42
2022-10-31T11:47:54.016Z,44.10
2022-10-31T11:50:26.988Z,43.13
2022-10-31T11:52:57.141Z,46.47
2022-10-31T11:55:34.561Z,51.50
2022-10-31T11:58:03.178Z,49.92
2022-10-31T12:00:33.388Z,43.33
2022-10-31T12:03:14.492Z,45.42
2022-10-31T12:05:45.745Z,43.22
2022-10-31T12:08:15.934Z,43.00
2022-10-31T12:10:53.227Z,47.38
2022-10-31T12:13:35.994Z,48.75
2022-10-31T12:16:13.584Z,48.83
2022-10-31T12:18:55.174Z,50.30
2022-10-31T12:21:49.457Z,50.70
2022-10-31T12:24:29.896Z,49.58
2022-10-31T12:27:09.585Z,46.63
2022-10-31T12:30:04.454Z,49.58
2022-10-31T12:32:42.688Z,47.13
2022-10-31T12:35:28.133Z,44.80
2022-10-31T12:38:17.722Z,45.67
2022-10-31T12:41:01.230Z,44.67
2022-10-31T12:43:38.452Z,49.08
2022-10-31T12:46:11.934Z,43.75
2022-10-31T12:48:55.509Z,43.65
2022-10-31T12:51:35.065Z,41.10
2022-10-31T12:54:18.626Z,39.83
2022-10-31T12:56:57.445Z,40.42
2022-10-31T12:59:31.879Z,43.63
2022-10-31T13:02:04.026Z,40.92
2022-10-31T13:04:42.133Z,43.28
2022-10-31T13:07:17.694Z,40.97
2022-10-31T13:09:50.202Z,40.42
2022-10-31T13:12:22.810Z,44.97
2022-10-31T13:14:54.287Z,43.88
2022-10-31T13:17:30.028Z,36.40
2022-10-31T13:20:15.629Z,38.75
2022-10-31T13:22:47.737Z,37.92
2022-10-31T13:25:19.711Z,40.38
2022-10-31T13:27:53.342Z,38.05
2022-10-31T13:30:23.415Z,39.35
2022-10-31T13:32:56.614Z,41.28
2022-10-31T13:35:31.142Z,44.65
2022-10-31T13:38:11.094Z,39.67
2022-10-31T13:40:46.678Z,41.03
2022-10-31T13:43:27.987Z,42.28
2022-10-31T13:45:57.310Z,44.13
2022-10-31T13:48:38.248Z,41.45
2022-10-31T13:51:10.148Z,41.95
2022-10-31T13:53:45.009Z,42.10
2022-10-31T13:56:24.564Z,37.38
2022-10-31T13:59:02.128Z,41.85
2022-10-31T14:01:31.042Z,40.50
2022-10-31T14:04:12.635Z,39.05
2022-10-31T14:06:47.442Z,46.28
2022-10-31T14:09:23.821Z,43.28
2022-10-31T14:11:52.763Z,40.50
2022-10-31T14:14:24.526Z,40.95
2022-10-31T14:16:58.258Z,46.63
2022-10-31T14:19:27.962Z,47.88
2022-10-31T14:21:58.354Z,47.22
2022-10-31T14:24:38.241Z,47.50
2022-10-31T14:27:22.655Z,53.33
2022-10-31T14:29:52.119Z,53.00
2022-10-31T14:32:24.330Z,49.80
2022-10-31T14:37:49.261Z,56.88
2022-10-31T14:40:28.760Z,50.13
2022-10-31T14:43:18.443Z,58.47
2022-10-31T14:45:57.184Z,55.25
2022-10-31T14:48:55.506Z,56.72
2022-10-31T14:51:27.424Z,51.80
2022-10-31T14:53:57.431Z,55.65
2022-10-31T14:56:27.488Z,52.88
2022-10-31T14:58:57.697Z,53.90
2022-10-31T15:01:29.863Z,57.95
2022-10-31T15:06:53.653Z,55.08
2022-10-31T15:09:25.998Z,57.40
2022-10-31T15:11:54.328Z,55.70
2022-10-31T15:14:26.138Z,53.80
2022-10-31T15:16:56.285Z,53.58
2022-10-31T15:19:26.298Z,53.83
2022-10-31T15:21:56.438Z,55.88
2022-10-31T15:24:26.803Z,55.05
2022-10-31T15:26:59.726Z,53.60
2022-10-31T15:29:31.996Z,60.08
2022-10-31T15:32:11.369Z,62.88
2022-10-31T15:34:41.121Z,59.40
2022-10-31T15:37:14.730Z,62.88
2022-10-31T15:39:42.810Z,59.83
2022-10-31T15:42:20.468Z,67.95
2022-10-31T15:44:51.509Z,60.55
2022-10-31T15:47:23.155Z,58.38
2022-10-31T15:49:53.617Z,59.97
2022-10-31T15:52:30.618Z,60.95
2022-10-31T15:55:01.923Z,63.95
2022-10-31T15:57:29.996Z,57.67
2022-10-31T15:59:58.250Z,61.22
2022-10-31T16:02:29.501Z,57.03
2022-10-31T16:05:00.423Z,57.30
2022-10-31T16:07:29.859Z,58.35
2022-10-31T16:09:59.710Z,56.97
2022-10-31T16:12:32.307Z,59.50
2022-10-31T16:15:00.257Z,57.35
2022-10-31T16:17:30.166Z,58.53
2022-10-31T16:20:01.985Z,57.13
2022-10-31T16:22:32.771Z,56.65
2022-10-31T16:25:06.980Z,52.88
2022-10-31T16:27:37.910Z,57.55
2022-10-31T16:30:31.605Z,60.63
2022-10-31T16:33:02.494Z,52.70
2022-10-31T16:35:36.494Z,63.45
2022-10-31T16:38:04.731Z,59.90
2022-10-31T16:40:33.792Z,57.05
2022-10-31T16:43:03.084Z,59.72
2022-10-31T16:45:33.301Z,55.90
2022-10-31T16:48:06.075Z,57.55
2022-10-31T16:50:34.497Z,61.60
2022-10-31T16:53:17.725Z,57.03
2022-10-31T16:55:48.041Z,54.33
2022-10-31T16:58:23.607Z,55.22
2022-10-31T17:00:52.060Z,56.63
2022-10-31T17:03:22.044Z,59.22
2022-10-31T17:05:50.183Z,57.92
2022-10-31T17:08:18.432Z,58.58
2022-10-31T17:10:47.763Z,55.58
2022-10-31T17:13:20.743Z,53.38
2022-10-31T17:15:52.296Z,51.78
2022-10-31T17:18:26.064Z,51.00
2022-10-31T17:20:59.647Z,55.40
2022-10-31T17:23:28.141Z,53.78
2022-10-31T17:25:56.254Z,51.20
2022-10-31T17:28:25.129Z,49.17
2022-10-31T17:30:54.741Z,43.50
2022-10-31T17:33:24.111Z,43.80
2022-10-31T17:35:52.105Z,46.05
2022-10-31T17:38:20.015Z,46.72
2022-10-31T17:43:20.838Z,40.95
2022-10-31T17:45:48.972Z,44.03
2022-10-31T17:48:16.869Z,42.40
2022-10-31T17:50:46.160Z,50.35
2022-10-31T17:53:14.080Z,41.83
2022-10-31T17:55:42.032Z,42.85
2022-10-31T17:58:12.274Z,40.63
2022-10-31T18:00:41.343Z,43.40
2022-10-31T18:03:09.539Z,43.35
2022-10-31T18:05:37.597Z,43.95
2022-10-31T18:08:06.973Z,41.33
2022-10-31T18:10:34.914Z,44.85
2022-10-31T18:13:03.206Z,45.97
2022-10-31T18:15:31.334Z,43.95
2022-10-31T18:17:59.530Z,42.70
2022-10-31T18:20:27.722Z,43.80
2022-10-31T18:22:55.711Z,43.22
2022-10-31T18:25:25.130Z,40.78
2022-10-31T18:27:53.055Z,41.85
2022-10-31T18:30:21.059Z,46.38
2022-10-31T18:32:51.157Z,45.28
2022-10-31T18:35:22.059Z,46.58
2022-10-31T18:37:49.987Z,45.58
2022-10-31T18:40:18.490Z,43.80
2022-10-31T18:42:47.885Z,46.05
2022-10-31T18:45:32.571Z,45.13
2022-10-31T18:48:01.915Z,43.85
2022-10-31T18:50:30.105Z,44.42
2022-10-31T18:52:58.229Z,48.85
2022-10-31T18:55:26.269Z,43.67
2022-10-31T18:57:57.226Z,42.90
2022-10-31T19:00:25.525Z,50.25
2022-10-31T19:02:56.361Z,44.17
2022-10-31T19:05:24.642Z,42.83
2022-10-31T19:07:52.626Z,43.45
2022-10-31T19:10:20.525Z,42.17
2022-10-31T19:12:48.456Z,43.30
2022-10-31T19:15:17.848Z,42.95
2022-10-31T19:17:46.573Z,42.00
2022-10-31T19:20:15.370Z,42.22
2022-10-31T19:22:43.345Z,43.38
2022-10-31T19:25:11.417Z,41.72
2022-10-31T19:27:40.038Z,40.47
2022-10-31T19:30:09.657Z,43.67
2022-10-31T19:32:39.308Z,40.70
2022-10-31T19:35:09.263Z,43.70
2022-10-31T19:37:37.598Z,38.58
2022-10-31T19:40:07.422Z,40.58
2022-10-31T19:42:35.598Z,40.75
2022-10-31T19:45:03.674Z,43.58
2022-10-31T19:47:31.700Z,40.50
2022-10-31T19:50:00.971Z,40.65
2022-10-31T19:52:28.976Z,37.80
2022-10-31T19:54:56.918Z,39.90
2022-10-31T19:57:48.360Z,39.28
2022-10-31T20:00:13.988Z,42.03
2022-10-31T20:02:41.934Z,41.17
2022-10-31T20:05:11.433Z,41.47
2022-10-31T20:07:39.393Z,38.85
2022-10-31T20:10:08.700Z,40.15
2022-10-31T20:12:36.664Z,37.17
2022-10-31T20:15:05.048Z,36.88
2022-10-31T20:17:33.104Z,37.75
2022-10-31T20:20:02.947Z,40.83
2022-10-31T20:22:32.228Z,39.17
2022-10-31T20:25:00.408Z,36.53
2022-10-31T20:27:28.751Z,39.97
2022-10-31T20:29:56.885Z,35.38
2022-10-31T20:32:24.877Z,35.83
2022-10-31T20:34:52.856Z,35.95
2022-10-31T20:37:20.850Z,35.33
2022-10-31T20:39:52.660Z,34.55
2022-10-31T20:42:23.937Z,33.03
2022-10-31T20:44:54.638Z,32.80
2022-10-31T20:47:25.684Z,34.00
2022-10-31T20:49:53.916Z,33.33
2022-10-31T20:52:21.998Z,33.63
2022-10-31T20:54:51.309Z,31.23
2022-10-31T20:57:19.242Z,29.13
2022-10-31T20:59:47.208Z,33.75
2022-10-31T21:02:15.230Z,30.45
2022-10-31T21:04:43.472Z,32.20
2022-10-31T21:07:11.449Z,25.55
2022-10-31T21:09:39.376Z,24.27
2022-10-31T21:12:08.898Z,24.13
2022-10-31T21:14:37.695Z,28.15
2022-10-31T21:17:06.833Z,23.90
2022-10-31T21:19:36.201Z,27.88
2022-10-31T21:22:04.766Z,23.48
2022-10-31T21:24:32.712Z,23.33
2022-10-31T21:27:02.603Z,21.13
2022-10-31T21:29:32.233Z,22.55
2022-10-31T21:32:00.168Z,22.58
2022-10-31T21:34:28.119Z,21.77
2022-10-31T21:36:56.067Z,19.45
2022-10-31T21:39:23.992Z,21.08
2022-10-31T21:41:51.953Z,21.85
2022-10-31T21:44:19.996Z,19.70
2022-10-31T21:46:49.491Z,18.10
2022-10-31T21:49:17.494Z,22.15
2022-10-31T21:51:46.848Z,20.77
2022-10-31T21:54:30.047Z,19.15
2022-10-31T21:56:59.600Z,18.88
2022-10-31T21:59:28.179Z,21.25
2022-10-31T22:01:59.835Z,18.00
2022-10-31T22:04:28.305Z,22.77
2022-10-31T22:06:56.330Z,19.38
2022-10-31T22:09:24.387Z,24.27
2022-10-31T22:11:52.658Z,31.15
2022-10-31T22:14:20.597Z,23.45
2022-10-31T22:16:48.542Z,26.08
2022-10-31T22:19:17.795Z,27.55
2022-10-31T22:21:48.826Z,26.08
2022-10-31T22:24:18.413Z,28.77
2022-10-31T22:26:46.487Z,27.08
2022-10-31T22:29:16.393Z,28.02
2022-10-31T22:31:45.982Z,30.02
2022-10-31T22:34:15.238Z,30.25
2022-10-31T22:36:44.793Z,30.08
2022-10-31T22:39:14.245Z,30.42
2022-10-31T22:41:42.194Z,30.20
2022-10-31T22:44:10.448Z,32.80
2022-10-31T22:46:40.081Z,30.50
2022-10-31T22:49:10.934Z,33.45
2022-10-31T22:51:40.596Z,27.95
2022-10-31T22:54:13.797Z,31.92
2022-10-31T22:56:41.843Z,32.03
2022-10-31T22:59:12.865Z,31.50
2022-10-31T23:01:41.017Z,29.75
2022-10-31T23:06:38.406Z,32.10
2022-10-31T23:09:09.058Z,32.38
2022-10-31T23:11:40.147Z,32.72
2022-10-31T23:14:13.799Z,34.58
2022-10-31T23:16:47.487Z,30.83
2022-10-31T23:19:17.416Z,30.10
2022-10-31T23:21:56.490Z,34.10
2022-10-31T23:24:28.673Z,32.17
2022-10-31T23:27:06.746Z,32.05
2022-10-31T23:29:35.856Z,26.98
2022-10-31T23:32:04.833Z,29.50
2022-10-31T23:34:32.837Z,30.35
2022-10-31T23:37:00.799Z,35.70
2022-10-31T23:39:30.303Z,32.13
2022-10-31T23:41:58.231Z,31.63
2022-10-31T23:44:26.214Z,31.02
2022-10-31T23:46:54.198Z,28.35
2022-10-31T23:49:22.121Z,33.25
2022-10-31T23:51:50.058Z,30.60
2022-10-31T23:54:18.010Z,27.60
2022-10-31T23:56:47.310Z,30.88
2022-10-31T23:59:15.451Z,34.08
